createdAt,value
2023-03-20T00:02:25.522Z,5.18
2023-03-20T00:04:53.714Z,4.90
2023-03-20T00:07:21.975Z,5.53
2023-03-20T00:09:51.816Z,5.22
2023-03-20T00:12:23.692Z,5.72
2023-03-20T00:14:52.349Z,5.32
2023-03-20T00:17:21.909Z,5.80
2023-03-20T00:19:50.077Z,6.03
2023-03-20T00:22:18.307Z,5.53
2023-03-20T00:24:46.631Z,5.75
2023-03-20T00:27:17.755Z,5.50
2023-03-20T00:29:46.667Z,5.93
2023-03-20T00:32:15.519Z,5.78
2023-03-20T00:34:43.936Z,6.40
2023-03-20T00:37:13.821Z,6.60
2023-03-20T00:39:42.088Z,6.40
2023-03-20T00:42:17.936Z,5.90
2023-03-20T00:44:52.467Z,6.45
2023-03-20T00:47:22.290Z,6.28
2023-03-20T00:49:51.871Z,6.57
2023-03-20T00:52:21.733Z,6.32
2023-03-20T00:54:49.893Z,6.97
2023-03-20T00:57:24.272Z,7.85
2023-03-20T00:59:56.179Z,6.13
2023-03-20T01:02:25.629Z,7.63
2023-03-20T01:04:55.227Z,6.95
2023-03-20T01:07:23.393Z,6.28
2023-03-20T01:09:52.848Z,5.88
2023-03-20T01:12:22.768Z,6.45
2023-03-20T01:14:52.998Z,5.78
2023-03-20T01:17:23.400Z,6.28
2023-03-20T01:19:51.578Z,7.93
2023-03-20T01:22:19.960Z,7.30
2023-03-20T01:24:49.814Z,7.60
2023-03-20T01:27:20.779Z,7.45
2023-03-20T01:29:51.712Z,8.02
2023-03-20T01:32:21.149Z,7.97
2023-03-20T01:34:49.564Z,7.15
2023-03-20T01:37:20.442Z,7.40
2023-03-20T01:39:48.675Z,7.65
2023-03-20T01:42:18.798Z,7.43
2023-03-20T01:44:47.312Z,7.10
2023-03-20T01:47:19.791Z,8.10
2023-03-20T01:50:22.249Z,7.47
2023-03-20T01:52:53.789Z,8.23
2023-03-20T01:55:23.076Z,8.88
2023-03-20T01:57:52.630Z,7.97
2023-03-20T02:00:21.682Z,7.65
2023-03-20T02:02:51.261Z,7.65
2023-03-20T02:05:23.179Z,7.88
2023-03-20T02:07:58.090Z,7.68
2023-03-20T02:10:27.924Z,8.60
2023-03-20T02:12:56.269Z,8.70
2023-03-20T02:15:27.741Z,9.57
2023-03-20T02:17:57.418Z,8.33
2023-03-20T02:20:35.408Z,9.27
2023-03-20T02:23:28.773Z,8.80
2023-03-20T02:26:16.943Z,9.73
2023-03-20T02:29:24.272Z,10.55
2023-03-20T02:32:19.188Z,9.60
2023-03-20T02:35:14.031Z,9.43
2023-03-20T02:38:13.112Z,9.75
2023-03-20T02:40:46.228Z,10.73
2023-03-20T02:43:21.443Z,9.80
2023-03-20T02:45:53.384Z,10.10
2023-03-20T02:48:29.878Z,10.40
2023-03-20T02:51:01.194Z,10.15
2023-03-20T02:53:53.260Z,10.88
2023-03-20T02:56:27.975Z,9.98
2023-03-20T02:59:01.614Z,10.55
2023-03-20T03:01:34.158Z,11.57
2023-03-20T03:04:05.369Z,9.90
2023-03-20T03:06:35.985Z,10.63
2023-03-20T03:09:09.565Z,10.88
2023-03-20T03:11:44.225Z,12.23
2023-03-20T03:14:17.040Z,11.15
2023-03-20T03:16:46.146Z,11.23
2023-03-20T03:19:18.370Z,11.20
2023-03-20T03:21:47.900Z,17.77
2023-03-20T03:24:39.732Z,16.05
2023-03-20T03:29:44.359Z,12.57
2023-03-20T03:32:29.261Z,12.65
2023-03-20T03:34:57.833Z,12.20
2023-03-20T03:37:32.177Z,12.82
2023-03-20T03:40:07.291Z,13.25
2023-03-20T03:42:38.919Z,14.32
2023-03-20T03:45:10.780Z,14.70
2023-03-20T03:47:41.347Z,13.73
2023-03-20T03:50:13.284Z,15.40
2023-03-20T03:52:42.865Z,14.18
2023-03-20T03:55:15.295Z,15.73
2023-03-20T03:57:46.971Z,15.43
2023-03-20T04:00:18.274Z,15.75
2023-03-20T04:02:49.389Z,15.82
2023-03-20T04:05:20.586Z,14.95
2023-03-20T04:07:50.934Z,16.10
2023-03-20T04:10:22.207Z,16.48
2023-03-20T04:12:50.529Z,16.63
2023-03-20T04:15:20.403Z,16.65
2023-03-20T04:17:48.967Z,16.23
2023-03-20T04:20:17.505Z,18.00
2023-03-20T04:22:45.779Z,18.90
2023-03-20T04:25:18.715Z,18.35
2023-03-20T04:27:48.880Z,18.00
2023-03-20T04:30:17.671Z,19.27
2023-03-20T04:32:47.015Z,18.35
2023-03-20T04:35:15.617Z,17.85
2023-03-20T04:37:45.369Z,18.95
2023-03-20T04:40:14.454Z,19.63
2023-03-20T04:42:42.682Z,19.05
2023-03-20T04:45:12.441Z,17.58
2023-03-20T04:47:40.667Z,19.52
2023-03-20T04:50:10.077Z,19.13
2023-03-20T04:52:38.510Z,18.52
2023-03-20T04:55:09.627Z,19.85
2023-03-20T04:57:37.758Z,17.88
2023-03-20T05:00:07.424Z,17.88
2023-03-20T05:02:38.732Z,19.35
2023-03-20T05:05:08.214Z,19.77
2023-03-20T05:07:36.361Z,20.63
2023-03-20T05:10:06.989Z,19.95
2023-03-20T05:12:35.556Z,18.67
2023-03-20T05:15:04.348Z,19.35
2023-03-20T05:17:32.461Z,21.77
2023-03-20T05:20:02.135Z,20.50
2023-03-20T05:22:30.528Z,20.48
2023-03-20T05:24:58.511Z,20.35
2023-03-20T05:27:26.871Z,20.98
2023-03-20T05:29:55.538Z,21.15
2023-03-20T05:32:23.969Z,20.63
2023-03-20T05:34:52.043Z,19.65
2023-03-20T05:37:24.045Z,20.38
2023-03-20T05:39:52.301Z,20.67
2023-03-20T05:42:20.478Z,20.90
2023-03-20T05:44:51.237Z,19.63
2023-03-20T05:47:19.389Z,22.77
2023-03-20T05:49:48.674Z,21.75
2023-03-20T05:52:16.744Z,21.40
2023-03-20T05:54:46.546Z,21.42
2023-03-20T05:57:15.379Z,22.73
2023-03-20T05:59:43.373Z,23.38
2023-03-20T06:02:11.944Z,22.65
2023-03-20T06:04:43.442Z,25.13
2023-03-20T06:07:14.342Z,24.98
2023-03-20T06:09:42.608Z,26.70
2023-03-20T06:12:12.643Z,25.88
2023-03-20T06:14:41.038Z,27.50
2023-03-20T06:17:09.528Z,32.72
2023-03-20T06:19:38.658Z,30.45
2023-03-20T06:22:07.127Z,32.13
2023-03-20T06:24:36.034Z,33.72
2023-03-20T06:27:04.200Z,33.08
2023-03-20T06:29:36.453Z,33.50
2023-03-20T06:32:04.520Z,37.25
2023-03-20T06:34:33.143Z,35.40
2023-03-20T06:37:01.649Z,36.08
2023-03-20T06:39:30.691Z,37.00
2023-03-20T06:42:00.247Z,36.10
2023-03-20T06:44:29.063Z,34.08
2023-03-20T06:47:02.440Z,34.70
2023-03-20T06:49:31.146Z,37.03
2023-03-20T06:52:00.180Z,36.05
2023-03-20T06:54:29.412Z,35.47
2023-03-20T06:56:57.970Z,38.75
2023-03-20T06:59:27.302Z,36.85
2023-03-20T07:01:58.304Z,37.15
2023-03-20T07:04:27.927Z,37.95
2023-03-20T07:06:56.864Z,38.15
2023-03-20T07:09:27.049Z,37.78
2023-03-20T07:11:56.249Z,37.20
2023-03-20T07:14:26.047Z,36.70
2023-03-20T07:16:54.768Z,37.33
2023-03-20T07:19:24.396Z,36.20
2023-03-20T07:21:58.220Z,36.38
2023-03-20T07:24:27.070Z,35.42
2023-03-20T07:26:56.123Z,35.15
2023-03-20T07:29:26.703Z,32.70
2023-03-20T07:31:55.114Z,32.25
2023-03-20T07:34:24.876Z,32.83
2023-03-20T07:37:00.681Z,32.92
2023-03-20T07:39:30.080Z,29.33
2023-03-20T07:41:58.443Z,29.52
2023-03-20T07:44:28.024Z,28.60
2023-03-20T07:46:58.644Z,28.33
2023-03-20T07:49:27.121Z,28.15
2023-03-20T07:51:57.968Z,28.50
2023-03-20T07:54:27.727Z,28.80
2023-03-20T07:56:57.264Z,28.48
2023-03-20T07:59:25.770Z,28.35
2023-03-20T08:01:54.197Z,28.02
2023-03-20T08:04:23.376Z,27.08
2023-03-20T08:06:53.475Z,28.25
2023-03-20T08:09:23.068Z,26.42
2023-03-20T08:11:52.592Z,25.55
2023-03-20T08:14:21.000Z,26.20
2023-03-20T08:17:02.420Z,24.65
2023-03-20T08:19:38.447Z,23.13
2023-03-20T08:22:07.253Z,22.90
2023-03-20T08:24:38.300Z,24.00
2023-03-20T08:27:07.648Z,23.52
2023-03-20T08:29:36.812Z,22.95
2023-03-20T08:32:05.012Z,21.95
2023-03-20T08:34:33.590Z,23.25
2023-03-20T08:37:09.241Z,21.10
2023-03-20T08:39:39.739Z,20.67
2023-03-20T08:42:09.335Z,21.13
2023-03-20T08:44:40.570Z,20.90
2023-03-20T08:47:10.493Z,19.60
2023-03-20T08:49:38.760Z,21.02
2023-03-20T08:52:07.399Z,19.48
2023-03-20T08:54:36.800Z,19.55
2023-03-20T08:57:08.023Z,18.77
2023-03-20T08:59:36.125Z,18.77
2023-03-20T09:02:04.575Z,19.13
2023-03-20T09:04:33.183Z,17.45
2023-03-20T09:07:03.143Z,19.15
2023-03-20T09:09:32.604Z,16.35
2023-03-20T09:12:01.651Z,16.70
2023-03-20T09:14:31.681Z,16.92
2023-03-20T09:17:00.258Z,17.70
2023-03-20T09:19:31.674Z,17.77
2023-03-20T09:22:00.556Z,16.25
2023-03-20T09:24:31.415Z,15.07
2023-03-20T09:27:03.110Z,12.57
2023-03-20T09:29:34.042Z,10.40
2023-03-20T09:32:02.559Z,10.63
2023-03-20T09:34:31.093Z,9.73
2023-03-20T09:36:59.518Z,9.90
2023-03-20T09:39:27.803Z,9.85
2023-03-20T09:41:57.716Z,10.20
2023-03-20T09:44:45.921Z,9.93
2023-03-20T09:47:21.332Z,9.88
2023-03-20T09:49:58.681Z,10.23
2023-03-20T09:52:29.905Z,10.07
2023-03-20T09:55:00.469Z,10.23
2023-03-20T09:57:30.289Z,9.52
2023-03-20T10:00:04.832Z,10.63
2023-03-20T10:02:41.711Z,10.02
2023-03-20T10:05:19.491Z,10.07
2023-03-20T10:07:47.713Z,10.00
2023-03-20T10:10:20.417Z,9.77
2023-03-20T10:12:54.161Z,9.68
2023-03-20T10:15:34.529Z,9.57
2023-03-20T10:18:08.541Z,9.75
2023-03-20T10:20:41.153Z,10.00
2023-03-20T10:25:48.481Z,11.05
2023-03-20T10:28:23.865Z,9.40
2023-03-20T10:31:01.559Z,9.80
2023-03-20T10:33:43.158Z,10.55
2023-03-20T10:36:19.670Z,9.57
2023-03-20T10:38:52.038Z,9.13
2023-03-20T10:43:51.540Z,10.20
2023-03-20T10:46:24.150Z,9.70
2023-03-20T10:48:56.160Z,10.43
2023-03-20T10:51:28.708Z,10.68
2023-03-20T10:53:59.947Z,8.55
2023-03-20T10:56:30.864Z,10.30
2023-03-20T10:59:01.225Z,10.15
2023-03-20T11:01:35.119Z,9.70
2023-03-20T11:04:04.311Z,10.70
2023-03-20T11:06:34.515Z,10.50
2023-03-20T11:09:12.731Z,11.35
2023-03-20T11:11:44.733Z,10.40
2023-03-20T11:14:18.920Z,10.18
2023-03-20T11:16:51.878Z,10.70
2023-03-20T11:19:21.789Z,10.13
2023-03-20T11:21:52.219Z,11.05
2023-03-20T11:24:27.602Z,10.10
2023-03-20T11:26:56.950Z,9.68
2023-03-20T11:29:28.465Z,10.18
2023-03-20T11:32:07.035Z,9.10
2023-03-20T11:34:38.667Z,9.32
2023-03-20T11:37:14.792Z,9.65
2023-03-20T11:39:55.561Z,9.75
2023-03-20T11:42:25.212Z,10.15
2023-03-20T11:45:01.490Z,9.88
2023-03-20T11:47:35.728Z,9.80
2023-03-20T11:50:07.346Z,9.77
2023-03-20T11:52:36.956Z,10.05
2023-03-20T11:55:08.281Z,9.80
2023-03-20T11:57:38.055Z,9.38
2023-03-20T12:00:18.989Z,10.07
2023-03-20T12:02:51.412Z,10.43
2023-03-20T12:05:31.122Z,10.23
2023-03-20T12:08:02.560Z,11.18
2023-03-20T12:10:34.458Z,11.32
2023-03-20T12:13:06.638Z,11.00
2023-03-20T12:15:37.340Z,11.23
2023-03-20T12:18:13.445Z,11.80
2023-03-20T12:20:45.431Z,11.02
2023-03-20T12:23:15.333Z,11.73
2023-03-20T12:25:50.563Z,11.43
2023-03-20T12:28:25.877Z,10.63
2023-03-20T12:31:07.483Z,12.45
2023-03-20T12:33:45.748Z,11.57
2023-03-20T12:36:16.777Z,11.43
2023-03-20T12:38:46.061Z,11.55
2023-03-20T12:41:17.230Z,11.38
2023-03-20T12:44:10.154Z,12.60
2023-03-20T12:46:44.455Z,12.30
2023-03-20T12:49:22.263Z,12.27
2023-03-20T12:51:57.775Z,12.15
2023-03-20T12:54:37.262Z,12.00
2023-03-20T12:57:14.735Z,11.70
2023-03-20T12:59:55.972Z,13.05
2023-03-20T13:02:36.215Z,15.38
2023-03-20T13:05:19.797Z,13.73
2023-03-20T13:07:59.200Z,13.15
2023-03-20T13:10:31.759Z,13.07
2023-03-20T13:13:08.582Z,14.05
2023-03-20T13:15:49.622Z,12.77
2023-03-20T13:18:22.132Z,13.68
2023-03-20T13:23:27.530Z,14.00
2023-03-20T13:26:08.718Z,13.23
2023-03-20T13:28:40.964Z,13.90
2023-03-20T13:31:20.831Z,13.50
2023-03-20T13:33:55.239Z,13.80
2023-03-20T13:36:34.052Z,15.93
2023-03-20T13:39:04.998Z,15.73
2023-03-20T13:41:35.078Z,14.52
2023-03-20T13:44:04.804Z,13.65
2023-03-20T13:46:37.360Z,14.00
2023-03-20T13:49:09.950Z,13.23
2023-03-20T13:51:43.952Z,14.88
2023-03-20T13:54:19.658Z,13.65
2023-03-20T13:56:55.367Z,13.90
2023-03-20T13:59:38.619Z,14.30
2023-03-20T14:02:17.911Z,13.50
2023-03-20T14:04:47.599Z,14.50
2023-03-20T14:07:32.791Z,14.55
2023-03-20T14:10:37.283Z,15.35
2023-03-20T14:13:08.603Z,15.65
2023-03-20T14:15:38.577Z,15.38
2023-03-20T14:18:08.412Z,15.95
2023-03-20T14:20:39.806Z,16.25
2023-03-20T14:23:17.774Z,15.55
2023-03-20T14:25:46.729Z,16.15
2023-03-20T14:28:31.650Z,15.98
2023-03-20T14:31:15.607Z,16.58
2023-03-20T14:33:45.299Z,15.40
2023-03-20T14:36:20.856Z,16.27
2023-03-20T14:39:08.383Z,15.43
2023-03-20T14:41:46.227Z,17.00
2023-03-20T14:44:26.525Z,17.05
2023-03-20T14:46:58.679Z,16.98
2023-03-20T14:49:55.976Z,15.88
2023-03-20T14:52:33.206Z,16.83
2023-03-20T14:55:30.489Z,16.63
2023-03-20T14:57:59.336Z,16.00
2023-03-20T15:00:30.576Z,15.98
2023-03-20T15:03:09.890Z,16.23
2023-03-20T15:05:39.335Z,15.70
2023-03-20T15:08:09.637Z,17.30
2023-03-20T15:10:46.854Z,15.82
2023-03-20T15:13:17.465Z,17.13
2023-03-20T15:15:54.419Z,16.33
2023-03-20T15:18:24.787Z,15.93
2023-03-20T15:20:53.232Z,14.82
2023-03-20T15:23:21.498Z,15.63
2023-03-20T15:25:51.742Z,16.42
2023-03-20T15:28:21.781Z,16.48
2023-03-20T15:30:51.440Z,16.65
2023-03-20T15:33:22.235Z,16.23
2023-03-20T15:35:50.845Z,16.52
2023-03-20T15:38:19.865Z,17.33
2023-03-20T15:40:51.362Z,16.85
2023-03-20T15:43:24.113Z,17.65
2023-03-20T15:48:40.332Z,16.88
2023-03-20T15:51:11.430Z,16.98
2023-03-20T15:53:40.927Z,14.90
2023-03-20T15:56:18.275Z,16.48
2023-03-20T15:58:53.123Z,15.45
2023-03-20T16:01:23.942Z,17.15
2023-03-20T16:03:54.487Z,16.02
2023-03-20T16:06:27.130Z,16.13
2023-03-20T16:09:00.458Z,16.50
2023-03-20T16:11:38.850Z,16.08
2023-03-20T16:14:08.984Z,15.68
2023-03-20T16:16:39.159Z,16.77
2023-03-20T16:19:08.653Z,16.38
2023-03-20T16:21:38.106Z,17.58
2023-03-20T16:24:09.129Z,15.65
2023-03-20T16:26:39.529Z,16.65
2023-03-20T16:29:12.935Z,17.05
2023-03-20T16:31:47.153Z,16.42
2023-03-20T16:34:19.443Z,16.35
2023-03-20T16:36:54.227Z,16.00
2023-03-20T16:39:23.689Z,17.30
2023-03-20T16:42:01.460Z,17.27
2023-03-20T16:44:35.424Z,17.63
2023-03-20T16:47:17.762Z,18.40
2023-03-20T16:50:05.595Z,17.20
2023-03-20T16:52:38.422Z,16.75
2023-03-20T16:55:13.911Z,17.88
2023-03-20T16:57:45.402Z,16.55
2023-03-20T17:00:27.824Z,17.70
2023-03-20T17:03:08.335Z,18.80
2023-03-20T17:05:45.875Z,16.73
2023-03-20T17:08:16.186Z,17.45
2023-03-20T17:10:46.677Z,18.17
2023-03-20T17:13:15.644Z,18.05
2023-03-20T17:15:45.643Z,18.60
2023-03-20T17:18:16.052Z,17.60
2023-03-20T17:20:44.078Z,18.85
2023-03-20T17:23:15.042Z,17.10
2023-03-20T17:25:45.299Z,17.88
2023-03-20T17:28:20.609Z,17.52
2023-03-20T17:30:53.162Z,17.38
2023-03-20T17:35:51.020Z,17.80
2023-03-20T17:38:22.501Z,16.95
2023-03-20T17:40:56.451Z,18.10
2023-03-20T17:43:24.769Z,17.17
2023-03-20T17:45:54.603Z,17.40
2023-03-20T17:48:22.880Z,17.10
2023-03-20T17:50:52.907Z,16.95
2023-03-20T17:53:24.036Z,17.35
2023-03-20T17:55:52.727Z,16.27
2023-03-20T17:58:23.051Z,17.13
2023-03-20T18:00:55.194Z,17.00
2023-03-20T18:03:25.108Z,16.67
2023-03-20T18:05:56.167Z,17.13
2023-03-20T18:08:24.224Z,16.17
2023-03-20T18:10:54.110Z,18.05
2023-03-20T18:13:25.122Z,16.63
2023-03-20T18:15:57.261Z,18.05
2023-03-20T18:18:26.740Z,17.23
2023-03-20T18:20:59.439Z,17.40
2023-03-20T18:23:27.840Z,18.42
2023-03-20T18:25:56.848Z,16.80
2023-03-20T18:28:24.893Z,18.05
2023-03-20T18:30:55.636Z,17.08
2023-03-20T18:33:27.606Z,17.88
2023-03-20T18:35:58.527Z,16.70
2023-03-20T18:38:28.101Z,16.60
2023-03-20T18:40:57.259Z,17.10
2023-03-20T18:43:27.692Z,16.65
2023-03-20T18:45:58.368Z,18.10
2023-03-20T18:48:26.941Z,15.57
2023-03-20T18:51:01.377Z,16.90
2023-03-20T18:53:31.232Z,14.48
2023-03-20T18:56:00.574Z,16.40
2023-03-20T18:58:31.553Z,16.17
2023-03-20T19:01:00.632Z,16.63
2023-03-20T19:03:28.962Z,15.23
2023-03-20T19:05:59.350Z,15.50
2023-03-20T19:08:29.824Z,15.45
2023-03-20T19:11:00.282Z,16.98
2023-03-20T19:13:28.571Z,15.13
2023-03-20T19:15:58.056Z,14.57
2023-03-20T19:18:27.222Z,15.00
2023-03-20T19:20:56.824Z,16.45
2023-03-20T19:23:28.623Z,15.73
2023-03-20T19:25:56.732Z,14.10
2023-03-20T19:28:38.752Z,13.93
2023-03-20T19:31:09.482Z,15.73
2023-03-20T19:33:38.534Z,14.45
2023-03-20T19:36:09.722Z,14.88
2023-03-20T19:38:38.829Z,14.27
2023-03-20T19:41:08.807Z,15.63
2023-03-20T19:43:51.760Z,15.30
2023-03-20T19:46:37.998Z,16.63
2023-03-20T19:49:10.373Z,16.23
2023-03-20T19:51:39.670Z,15.85
2023-03-20T19:54:07.866Z,16.77
2023-03-20T19:56:35.905Z,16.67
2023-03-20T19:59:07.283Z,16.58
2023-03-20T20:01:36.262Z,18.67
2023-03-20T20:04:05.288Z,17.50
2023-03-20T20:06:33.474Z,17.67
2023-03-20T20:09:01.853Z,17.55
2023-03-20T20:11:30.410Z,17.25
2023-03-20T20:14:08.522Z,16.23
2023-03-20T20:16:42.598Z,16.25
2023-03-20T20:19:10.879Z,16.60
2023-03-20T20:24:29.687Z,16.33
2023-03-20T20:27:15.853Z,17.52
2023-03-20T20:29:48.405Z,16.67
2023-03-20T20:32:18.801Z,17.90
2023-03-20T20:40:30.466Z,17.40
2023-03-20T20:43:01.746Z,17.05
2023-03-20T20:45:32.404Z,17.35
2023-03-20T20:48:04.138Z,15.85
2023-03-20T20:50:35.878Z,15.77
2023-03-20T20:53:04.881Z,17.45
2023-03-20T20:55:33.011Z,17.30
2023-03-20T20:58:04.296Z,17.52
2023-03-20T21:00:48.994Z,17.60
2023-03-20T21:03:21.072Z,18.27
2023-03-20T21:05:51.925Z,17.63
2023-03-20T21:08:22.072Z,16.20
2023-03-20T21:10:54.039Z,17.55
2023-03-20T21:13:22.357Z,17.33
2023-03-20T21:15:58.764Z,16.27
2023-03-20T21:18:29.666Z,17.38
2023-03-20T21:21:05.095Z,17.23
2023-03-20T21:23:36.037Z,17.13
2023-03-20T21:26:04.879Z,17.27
2023-03-20T21:28:33.074Z,16.95
2023-03-20T21:31:23.142Z,17.13
2023-03-20T21:33:57.340Z,16.92
2023-03-20T21:36:29.662Z,17.45
2023-03-20T21:39:07.846Z,17.65
2023-03-20T21:41:39.982Z,18.15
2023-03-20T21:44:16.613Z,19.90
2023-03-20T21:50:36.719Z,19.05
2023-03-20T22:10:10.975Z,21.45
2023-03-20T22:18:46.731Z,20.90
2023-03-20T22:24:12.558Z,21.65
2023-03-20T22:35:23.015Z,22.80
2023-03-20T22:41:37.964Z,21.45
2023-03-20T22:44:25.918Z,21.55
2023-03-20T22:46:43.991Z,21.95
2023-03-20T22:49:07.464Z,23.10
2023-03-20T22:51:43.743Z,23.02
2023-03-20T22:54:16.885Z,22.15
2023-03-20T22:56:47.822Z,21.42
2023-03-20T22:59:17.072Z,20.45
2023-03-20T23:01:47.646Z,22.58
2023-03-20T23:04:15.993Z,21.13
2023-03-20T23:06:44.091Z,20.30
2023-03-20T23:09:15.706Z,22.15
2023-03-20T23:11:44.328Z,19.60
2023-03-20T23:14:22.255Z,19.70
2023-03-20T23:16:50.995Z,18.15
2023-03-20T23:19:19.202Z,19.00
2023-03-20T23:21:47.671Z,17.83
2023-03-20T23:24:16.944Z,19.52
2023-03-20T23:26:45.617Z,19.67
2023-03-20T23:29:17.793Z,19.45
2023-03-20T23:31:47.353Z,18.83
2023-03-20T23:34:17.770Z,19.13
2023-03-20T23:36:47.480Z,20.58
2023-03-20T23:39:16.293Z,21.00
2023-03-20T23:42:06.204Z,18.08
2023-03-20T23:44:35.020Z,19.77
2023-03-20T23:47:17.866Z,20.13
2023-03-20T23:49:48.037Z,20.67
2023-03-20T23:52:16.788Z,19.30
2023-03-20T23:54:46.034Z,21.23
2023-03-20T23:57:14.316Z,19.95
2023-03-20T23:59:44.299Z,21.65
